Terminal Aerodrome Forecast
Issued by NWS

Home | Current Version | Previous Version | Graphics & Text | Print | Product List | Glossary On
Versions: 1 2 3 4 5 6 7 8 9 10 11 12 13 14 15
403
FTUS43 KTOP 260520
TAFFOE
TAF
KFOE 260520Z 2606/2706 34015G22KT P6SM VCSH OVC015
     FM261000 34014KT P6SM OVC012
     FM261600 33016G24KT P6SM OVC025
     FM261900 34016G24KT P6SM OVC035
     FM270100 33011KT P6SM SCT040=

USA.gov is the U.S. government's official web portal to all federal, state and local government web resources and services.